createdAt,value
2023-04-02T00:01:19.354Z,99287.88
2023-04-02T00:03:53.730Z,99290.41
2023-04-02T00:06:30.360Z,99293.88
2023-04-02T00:08:59.594Z,99292.13
2023-04-02T00:11:36.010Z,99299.00
2023-04-02T00:14:04.019Z,99302.41
2023-04-02T00:16:31.216Z,99302.41
2023-04-02T00:19:03.389Z,99303.28
2023-04-02T00:21:32.434Z,99301.56
2023-04-02T00:24:00.188Z,99298.13
2023-04-02T00:26:35.131Z,99301.56
2023-04-02T00:29:02.650Z,99300.69
2023-04-02T00:31:29.700Z,99295.53
2023-04-02T00:33:56.719Z,99297.28
2023-04-02T00:36:23.688Z,99299.00
2023-04-02T00:38:50.731Z,99299.84
2023-04-02T00:41:23.403Z,99295.59
2023-04-02T00:43:54.689Z,99303.25
2023-04-02T00:46:24.372Z,99311.84
2023-04-02T00:49:09.853Z,99305.81
2023-04-02T00:51:38.805Z,99307.53
2023-04-02T00:54:06.690Z,99304.13
2023-04-02T00:56:54.504Z,99306.69
2023-04-02T00:59:28.408Z,99311.84
2023-04-02T01:02:14.937Z,99306.69
2023-04-02T01:04:42.115Z,99310.16
2023-04-02T01:07:10.606Z,99305.03
2023-04-02T01:09:59.112Z,99310.19
2023-04-02T01:12:41.612Z,99312.78
2023-04-02T01:15:19.946Z,99323.13
2023-04-02T01:17:59.013Z,99317.13
2023-04-02T01:21:03.529Z,99311.94
2023-04-02T01:23:30.344Z,99311.06
2023-04-02T01:26:04.669Z,99313.63
2023-04-02T01:29:08.979Z,99316.19
2023-04-02T01:31:36.021Z,99316.19
2023-04-02T01:34:04.213Z,99316.19
2023-04-02T01:36:45.664Z,99320.47
2023-04-02T01:39:25.315Z,99320.53
2023-04-02T01:42:07.846Z,99319.63
2023-04-02T01:45:02.524Z,99321.31
2023-04-02T01:47:30.409Z,99319.59
2023-04-02T01:50:01.283Z,99325.59
2023-04-02T01:52:40.691Z,99335.88
2023-04-02T01:55:13.281Z,99328.13
2023-04-02T01:57:42.245Z,99335.81
2023-04-02T02:00:14.717Z,99346.94
2023-04-02T02:02:44.031Z,99344.38
2023-04-02T02:05:15.768Z,99330.69
2023-04-02T02:07:45.562Z,99340.91
2023-04-02T02:10:16.875Z,99338.41
2023-04-02T02:12:43.969Z,99335.84
2023-04-02T02:15:18.139Z,99342.75
2023-04-02T02:17:45.232Z,99337.59
2023-04-02T02:20:12.973Z,99337.59
2023-04-02T02:22:42.112Z,99335.88
2023-04-02T02:25:16.044Z,99334.16
2023-04-02T02:28:01.569Z,99339.28
2023-04-02T02:30:53.324Z,99341.81
2023-04-02T02:33:39.734Z,99346.06
2023-04-02T02:36:29.524Z,99357.16
2023-04-02T02:39:02.166Z,99361.44
2023-04-02T02:41:41.970Z,99359.72
2023-04-02T02:44:09.632Z,99352.84
2023-04-02T02:46:39.507Z,99352.91
2023-04-02T02:49:10.527Z,99352.13
2023-04-02T02:52:03.760Z,99346.16
2023-04-02T02:54:55.662Z,99341.81
2023-04-02T02:57:30.039Z,99348.69
2023-04-02T02:59:58.052Z,99350.41
2023-04-02T03:02:25.504Z,99347.84
2023-04-02T03:04:54.117Z,99353.00
2023-04-02T03:07:25.723Z,99350.44
2023-04-02T03:10:00.674Z,99355.53
2023-04-02T03:12:30.432Z,99358.16
2023-04-02T03:15:28.968Z,99367.53
2023-04-02T03:17:59.853Z,99363.22
2023-04-02T03:20:48.567Z,99373.47
2023-04-02T03:23:30.845Z,99366.59
2023-04-02T03:26:16.005Z,99368.22
2023-04-02T03:29:14.445Z,99367.31
2023-04-02T03:31:48.102Z,99370.75
2023-04-02T03:34:21.550Z,99370.72
2023-04-02T03:36:57.856Z,99374.97
2023-04-02T03:40:00.453Z,99371.44
2023-04-02T03:42:29.874Z,99378.31
2023-04-02T03:45:05.678Z,99376.53
2023-04-02T03:47:38.717Z,99383.38
2023-04-02T03:50:21.713Z,99385.06
2023-04-02T03:52:49.645Z,99382.44
2023-04-02T03:55:25.962Z,99390.13
2023-04-02T03:57:55.815Z,99387.50
2023-04-02T04:00:27.202Z,99381.47
2023-04-02T04:02:59.383Z,99393.47
2023-04-02T04:05:34.029Z,99389.19
2023-04-02T04:08:04.462Z,99386.56
2023-04-02T04:10:31.872Z,99392.53
2023-04-02T04:13:05.089Z,99386.56
2023-04-02T04:15:54.544Z,99397.72
2023-04-02T04:18:46.691Z,99389.13
2023-04-02T04:21:22.856Z,99399.38
2023-04-02T04:23:50.791Z,99395.09
2023-04-02T04:26:21.382Z,99396.84
2023-04-02T04:29:17.641Z,99395.09
2023-04-02T04:31:55.990Z,99392.53
2023-04-02T04:34:42.431Z,99402.78
2023-04-02T04:37:29.273Z,99401.06
2023-04-02T04:40:16.678Z,99405.34
2023-04-02T04:42:43.902Z,99408.72
2023-04-02T04:45:17.171Z,99407.03
2023-04-02T04:47:50.624Z,99403.59
2023-04-02T04:50:17.402Z,99410.44
2023-04-02T04:52:44.656Z,99417.31
2023-04-02T04:55:38.215Z,99413.94
2023-04-02T04:58:24.780Z,99419.91
2023-04-02T05:01:08.274Z,99420.78
2023-04-02T05:03:39.899Z,99420.75
2023-04-02T05:06:33.393Z,99416.53
2023-04-02T05:09:07.499Z,99413.97
2023-04-02T05:11:47.286Z,99421.66
2023-04-02T05:14:24.896Z,99416.56
2023-04-02T05:17:15.797Z,99409.78
2023-04-02T05:19:48.229Z,99407.22
2023-04-02T05:22:18.006Z,99402.97
2023-04-02T05:24:51.355Z,99411.66
2023-04-02T05:27:49.866Z,99407.44
2023-04-02T05:30:29.018Z,99408.31
2023-04-02T05:33:05.148Z,99415.19
2023-04-02T05:35:34.676Z,99416.09
2023-04-02T05:38:02.409Z,99427.19
2023-04-02T05:40:40.210Z,99426.31
2023-04-02T05:43:11.114Z,99420.28
2023-04-02T05:45:43.557Z,99428.03
2023-04-02T05:48:17.553Z,99426.38
2023-04-02T05:50:46.190Z,99422.91
2023-04-02T05:53:36.259Z,99415.25
2023-04-02T05:56:08.262Z,99423.84
2023-04-02T05:58:53.352Z,99428.97
2023-04-02T06:01:48.366Z,99428.13
2023-04-02T06:04:45.002Z,99422.97
2023-04-02T06:07:18.484Z,99428.09
2023-04-02T06:09:57.226Z,99428.16
2023-04-02T06:12:34.906Z,99432.50
2023-04-02T06:15:07.766Z,99430.84
2023-04-02T06:17:55.024Z,99433.47
2023-04-02T06:20:25.524Z,99440.31
2023-04-02T06:23:11.358Z,99440.38
2023-04-02T06:25:52.383Z,99442.13
2023-04-02T06:28:42.288Z,99437.88
2023-04-02T06:31:38.371Z,99440.47
2023-04-02T06:34:25.110Z,99446.50
2023-04-02T06:37:14.127Z,99438.81
2023-04-02T06:39:46.111Z,99442.28
2023-04-02T06:45:42.944Z,99436.19
2023-04-02T06:48:35.456Z,99443.94
2023-04-02T06:51:15.104Z,99443.16
2023-04-02T06:53:51.726Z,99442.44
2023-04-02T06:56:47.832Z,99438.19
2023-04-02T06:59:30.506Z,99442.59
2023-04-02T07:02:27.502Z,99447.72
2023-04-02T07:05:13.318Z,99441.69
2023-04-02T07:08:09.113Z,99441.69
2023-04-02T07:10:59.848Z,99440.03
2023-04-02T07:13:37.055Z,99448.72
2023-04-02T07:16:17.620Z,99439.31
2023-04-02T07:18:47.675Z,99446.19
2023-04-02T07:21:17.418Z,99450.50
2023-04-02T07:23:52.666Z,99447.13
2023-04-02T07:26:26.330Z,99446.28
2023-04-02T07:28:57.870Z,99451.41
2023-04-02T07:31:30.734Z,99459.06
2023-04-02T07:34:03.380Z,99462.47
2023-04-02T07:36:34.169Z,99456.44
2023-04-02T07:39:05.599Z,99455.59
2023-04-02T07:41:36.063Z,99451.34
2023-04-02T07:44:09.362Z,99452.22
2023-04-02T07:46:53.136Z,99461.66
2023-04-02T07:49:24.424Z,99455.69
2023-04-02T07:51:55.971Z,99460.00
2023-04-02T07:54:29.299Z,99460.88
2023-04-02T07:56:58.422Z,99460.84
2023-04-02T07:59:30.533Z,99467.69
2023-04-02T08:01:59.698Z,99463.41
2023-04-02T08:04:32.226Z,99460.94
2023-04-02T08:07:02.711Z,99464.41
2023-04-02T08:09:32.619Z,99466.13
2023-04-02T08:12:01.738Z,99464.44
2023-04-02T08:14:30.905Z,99466.13
2023-04-02T08:19:57.776Z,99466.91
2023-04-02T08:22:28.541Z,99476.34
2023-04-02T08:24:58.464Z,99467.78
2023-04-02T08:27:28.152Z,99470.38
2023-04-02T08:29:57.681Z,99466.94
2023-04-02T08:32:30.154Z,99467.00
2023-04-02T08:34:59.995Z,99470.44
2023-04-02T08:37:30.061Z,99466.19
2023-04-02T08:40:00.197Z,99467.94
2023-04-02T08:42:46.882Z,99465.38
2023-04-02T08:45:38.276Z,99467.13
2023-04-02T08:48:10.207Z,99470.63
2023-04-02T08:50:41.769Z,99478.34
2023-04-02T08:53:26.281Z,99474.06
2023-04-02T08:56:18.249Z,99480.06
2023-04-02T08:58:57.015Z,99477.53
2023-04-02T09:01:52.635Z,99485.34
2023-04-02T09:04:23.891Z,99473.38
2023-04-02T09:06:55.237Z,99472.63
2023-04-02T09:09:28.323Z,99482.13
2023-04-02T09:12:05.345Z,99482.16
2023-04-02T09:14:47.789Z,99477.06
2023-04-02T09:17:25.260Z,99487.41
2023-04-02T09:20:06.856Z,99480.56
2023-04-02T09:22:37.162Z,99489.16
2023-04-02T09:25:16.000Z,99482.38
2023-04-02T09:27:47.685Z,99492.75
2023-04-02T09:30:32.905Z,99478.22
2023-04-02T09:33:08.210Z,99473.97
2023-04-02T09:35:54.342Z,99480.94
2023-04-02T09:38:34.217Z,99480.16
2023-04-02T09:41:07.974Z,99478.53
2023-04-02T09:43:40.173Z,99479.53
2023-04-02T09:46:27.608Z,99476.19
2023-04-02T09:48:59.753Z,99483.06
2023-04-02T09:51:31.880Z,99478.84
2023-04-02T09:54:04.814Z,99482.28
2023-04-02T09:56:35.544Z,99489.25
2023-04-02T09:59:06.205Z,99479.84
2023-04-02T10:01:37.799Z,99483.34
2023-04-02T10:04:06.121Z,99466.25
2023-04-02T10:06:33.751Z,99471.47
2023-04-02T10:09:28.945Z,99468.94
2023-04-02T10:11:56.244Z,99465.50
2023-04-02T10:14:26.030Z,99468.16
2023-04-02T10:16:58.199Z,99469.06
2023-04-02T10:19:33.484Z,99470.81
2023-04-02T10:22:02.921Z,99468.28
2023-04-02T10:24:29.918Z,99465.81
2023-04-02T10:27:22.592Z,99465.94
2023-04-02T10:30:11.254Z,99467.69
2023-04-02T10:32:50.005Z,99463.50
2023-04-02T10:35:21.638Z,99463.56
2023-04-02T10:38:07.212Z,99467.06
2023-04-02T10:40:40.145Z,99467.09
2023-04-02T10:43:37.453Z,99464.53
2023-04-02T10:46:27.662Z,99465.41
2023-04-02T10:49:13.815Z,99462.84
2023-04-02T10:51:48.684Z,99458.56
2023-04-02T10:54:24.600Z,99462.03
2023-04-02T10:56:53.331Z,99453.44
2023-04-02T10:59:24.840Z,99462.88
2023-04-02T11:01:51.821Z,99465.50
2023-04-02T11:04:26.814Z,99460.31
2023-04-02T11:07:11.192Z,99463.78
2023-04-02T11:09:42.843Z,99454.34
2023-04-02T11:12:17.211Z,99457.84
2023-04-02T11:14:44.199Z,99454.41
2023-04-02T11:17:12.466Z,99453.59
2023-04-02T11:19:39.571Z,99447.66
2023-04-02T11:22:17.703Z,99450.25
2023-04-02T11:24:46.823Z,99456.31
2023-04-02T11:27:33.682Z,99446.00
2023-04-02T11:30:15.991Z,99451.19
2023-04-02T11:32:49.324Z,99455.50
2023-04-02T11:35:31.453Z,99453.75
2023-04-02T11:38:12.638Z,99452.88
2023-04-02T11:40:53.044Z,99458.06
2023-04-02T11:43:35.974Z,99454.59
2023-04-02T11:46:29.312Z,99451.16
2023-04-02T11:49:37.939Z,99456.31
2023-04-02T11:52:11.936Z,99461.50
2023-04-02T11:54:39.595Z,99450.31
2023-04-02T11:57:30.743Z,99453.75
2023-04-02T12:00:26.415Z,99444.28
2023-04-02T12:02:59.774Z,99445.13
2023-04-02T12:05:27.568Z,99449.44
2023-04-02T12:07:57.374Z,99440.78
2023-04-02T12:10:25.032Z,99433.91
2023-04-02T12:12:52.000Z,99447.69
2023-04-02T12:15:32.747Z,99446.84
2023-04-02T12:18:11.675Z,99436.50
2023-04-02T12:20:38.581Z,99433.03
2023-04-02T12:23:05.599Z,99442.50
2023-04-02T12:25:40.319Z,99433.91
2023-04-02T12:28:10.626Z,99434.75
2023-04-02T12:30:38.249Z,99433.88
2023-04-02T12:33:38.391Z,99437.34
2023-04-02T12:36:10.070Z,99428.69
2023-04-02T12:38:44.828Z,99423.50
2023-04-02T12:41:24.296Z,99420.03
2023-04-02T12:44:01.779Z,99416.56
2023-04-02T12:46:29.954Z,99418.28
2023-04-02T12:49:20.635Z,99439.00
2023-04-02T12:51:48.486Z,99426.91
2023-04-02T12:54:17.585Z,99420.88
2023-04-02T12:56:44.504Z,99427.78
2023-04-02T12:59:43.741Z,99421.72
2023-04-02T13:02:21.857Z,99429.50
2023-04-02T13:04:53.268Z,99432.09
2023-04-02T13:07:21.787Z,99430.34
2023-04-02T13:09:55.760Z,99431.22
2023-04-02T13:12:36.916Z,99428.63
2023-04-02T13:15:09.000Z,99429.50
2023-04-02T13:17:43.730Z,99442.47
2023-04-02T13:20:35.966Z,99436.41
2023-04-02T13:23:30.722Z,99436.44
2023-04-02T13:25:58.675Z,99437.31
2023-04-02T13:28:25.615Z,99434.72
2023-04-02T13:30:52.504Z,99434.75
2023-04-02T13:33:20.483Z,99441.66
2023-04-02T13:35:47.480Z,99438.19
2023-04-02T13:38:14.437Z,99454.59
2023-04-02T13:40:42.668Z,99438.22
2023-04-02T13:43:15.704Z,99433.03
2023-04-02T13:45:42.694Z,99445.13
2023-04-02T13:48:10.405Z,99430.44
2023-04-02T13:50:37.589Z,99435.59
2023-04-02T13:53:07.814Z,99435.63
2023-04-02T13:55:38.296Z,99430.44
2023-04-02T13:58:05.467Z,99433.00
2023-04-02T14:00:32.286Z,99431.31
2023-04-02T14:03:02.839Z,99430.44
2023-04-02T14:05:41.784Z,99442.50
2023-04-02T14:08:22.270Z,99440.78
2023-04-02T14:11:01.743Z,99439.03
2023-04-02T14:14:03.621Z,99443.38
2023-04-02T14:16:45.810Z,99443.38
2023-04-02T14:19:27.920Z,99447.66
2023-04-02T14:22:00.951Z,99439.91
2023-04-02T14:24:41.148Z,99445.09
2023-04-02T14:27:17.368Z,99448.56
2023-04-02T14:29:44.164Z,99453.75
2023-04-02T14:32:40.556Z,99446.84
2023-04-02T14:35:24.700Z,99443.38
2023-04-02T14:38:13.314Z,99439.94
2023-04-02T14:40:50.249Z,99441.66
2023-04-02T14:43:23.020Z,99436.50
2023-04-02T14:46:04.126Z,99440.81
2023-04-02T14:48:44.573Z,99441.69
2023-04-02T14:51:40.968Z,99437.38
2023-04-02T14:54:53.114Z,99441.69
2023-04-02T14:57:31.664Z,99441.69
2023-04-02T15:00:04.025Z,99439.97
2023-04-02T15:02:30.942Z,99440.84
2023-04-02T15:05:03.899Z,99451.16
2023-04-02T15:07:38.413Z,99441.69
2023-04-02T15:10:17.309Z,99454.63
2023-04-02T15:12:45.676Z,99448.56
2023-04-02T15:15:52.523Z,99457.19
2023-04-02T15:18:19.559Z,99455.47
2023-04-02T15:20:57.648Z,99454.59
2023-04-02T15:23:49.130Z,99448.56
2023-04-02T15:26:37.443Z,99452.84
2023-04-02T15:29:25.831Z,99458.03
2023-04-02T15:31:59.513Z,99458.00
2023-04-02T15:34:32.386Z,99462.31
2023-04-02T15:37:07.600Z,99458.00
2023-04-02T15:40:22.213Z,99466.59
2023-04-02T15:42:58.621Z,99463.16
2023-04-02T15:45:29.390Z,99467.50
2023-04-02T15:48:12.090Z,99472.63
2023-04-02T15:51:16.663Z,99474.34
2023-04-02T15:54:08.081Z,99471.75
2023-04-02T15:56:51.122Z,99478.59
2023-04-02T15:59:49.545Z,99477.72
2023-04-02T16:02:39.790Z,99483.72
2023-04-02T16:05:42.208Z,99473.38
2023-04-02T16:08:24.246Z,99483.66
2023-04-02T16:10:51.512Z,99479.31
2023-04-02T16:13:28.520Z,99486.19
2023-04-02T16:16:33.057Z,99488.75
2023-04-02T16:19:02.885Z,99494.75
2023-04-02T16:21:33.164Z,99488.69
2023-04-02T16:24:00.190Z,99499.88
2023-04-02T16:26:42.398Z,99493.84
2023-04-02T16:29:24.213Z,99492.09
2023-04-02T16:32:15.440Z,99503.28
2023-04-02T16:34:51.383Z,99501.53
2023-04-02T16:37:31.700Z,99504.94
2023-04-02T16:40:22.308Z,99505.78
2023-04-02T16:42:59.370Z,99507.47
2023-04-02T16:45:45.058Z,99521.19
2023-04-02T16:48:30.492Z,99513.38
2023-04-02T16:51:21.241Z,99515.88
2023-04-02T16:54:09.191Z,99514.94
2023-04-02T16:56:48.055Z,99514.91
2023-04-02T16:59:38.489Z,99516.63
2023-04-02T17:02:20.721Z,99521.75
2023-04-02T17:04:53.476Z,99525.13
2023-04-02T17:07:27.525Z,99525.97
2023-04-02T17:10:32.511Z,99530.22
2023-04-02T17:13:03.677Z,99528.44
2023-04-02T17:15:37.159Z,99536.16
2023-04-02T17:18:24.879Z,99532.66
2023-04-02T17:20:52.102Z,99534.31
2023-04-02T17:23:19.592Z,99532.56
2023-04-02T17:25:53.361Z,99536.81
2023-04-02T17:28:25.705Z,99531.63
2023-04-02T17:30:55.893Z,99535.88
2023-04-02T17:33:26.748Z,99541.84
2023-04-02T17:35:59.776Z,99543.50
2023-04-02T17:38:38.771Z,99543.47
2023-04-02T17:41:23.489Z,99542.63
2023-04-02T17:43:58.331Z,99540.00
2023-04-02T17:46:38.210Z,99540.00
2023-04-02T17:49:23.171Z,99544.25
2023-04-02T17:52:01.064Z,99542.47
2023-04-02T17:55:25.365Z,99546.72
2023-04-02T17:58:07.972Z,99544.06
2023-04-02T18:00:57.705Z,99545.75
2023-04-02T18:03:29.561Z,99550.84
2023-04-02T18:06:15.892Z,99551.75
2023-04-02T18:09:18.103Z,99555.97
2023-04-02T18:12:25.783Z,99546.47
2023-04-02T18:15:19.009Z,99546.38
2023-04-02T18:17:54.170Z,99548.97
2023-04-02T18:20:23.464Z,99549.75
2023-04-02T18:23:14.973Z,99553.19
2023-04-02T18:25:46.684Z,99548.84
2023-04-02T18:28:24.669Z,99548.78
2023-04-02T18:31:06.696Z,99547.91
2023-04-02T18:34:21.151Z,99551.31
2023-04-02T18:37:13.492Z,99545.28
2023-04-02T18:40:00.090Z,99550.47
2023-04-02T18:42:39.250Z,99551.28
2023-04-02T18:45:17.907Z,99552.97
2023-04-02T18:47:53.764Z,99541.78
2023-04-02T18:50:35.321Z,99546.94
2023-04-02T18:53:19.460Z,99546.00
2023-04-02T18:55:57.895Z,99553.72
2023-04-02T18:58:33.703Z,99549.38
2023-04-02T19:01:00.710Z,99556.25
2023-04-02T19:03:37.282Z,99548.47
2023-04-02T19:06:11.898Z,99547.59
2023-04-02T19:09:01.129Z,99543.28
2023-04-02T19:11:31.669Z,99549.28
2023-04-02T19:13:59.924Z,99548.38
2023-04-02T19:16:35.981Z,99551.75
2023-04-02T19:19:17.643Z,99554.28
2023-04-02T19:22:03.498Z,99550.75
2023-04-02T19:24:42.578Z,99554.13
2023-04-02T19:27:27.526Z,99554.97
2023-04-02T19:30:27.904Z,99549.78
2023-04-02T19:33:25.055Z,99557.50
2023-04-02T19:35:58.925Z,99556.63
2023-04-02T19:38:55.002Z,99557.50
2023-04-02T19:41:48.245Z,99547.22
2023-04-02T19:44:15.554Z,99554.94
2023-04-02T19:46:42.640Z,99555.81
2023-04-02T19:49:26.537Z,99555.06
2023-04-02T19:51:53.739Z,99554.22
2023-04-02T19:54:20.559Z,99550.75
2023-04-02T19:56:47.876Z,99549.03
2023-04-02T19:59:18.063Z,99555.91
2023-04-02T20:01:45.571Z,99560.13
2023-04-02T20:04:12.589Z,99560.06
2023-04-02T20:06:39.702Z,99550.63
2023-04-02T20:09:08.215Z,99549.75
2023-04-02T20:11:36.251Z,99563.44
2023-04-02T20:14:03.193Z,99556.50
2023-04-02T20:16:30.262Z,99559.88
2023-04-02T20:18:57.764Z,99558.97
2023-04-02T20:21:24.612Z,99555.59
2023-04-02T20:23:55.342Z,99560.75
2023-04-02T20:26:22.782Z,99554.78
2023-04-02T20:28:49.880Z,99557.44
2023-04-02T20:31:18.051Z,99553.19
2023-04-02T20:33:45.464Z,99559.22
2023-04-02T20:36:16.354Z,99567.00
2023-04-02T20:38:43.569Z,99569.72
2023-04-02T20:41:10.478Z,99569.72
2023-04-02T20:43:40.544Z,99564.53
2023-04-02T20:46:09.521Z,99565.41
2023-04-02T20:48:37.905Z,99570.59
2023-04-02T20:51:06.154Z,99565.56
2023-04-02T20:53:34.501Z,99570.69
2023-04-02T20:56:08.944Z,99573.25
2023-04-02T20:58:36.224Z,99573.22
2023-04-02T21:01:10.325Z,99574.06
2023-04-02T21:03:37.427Z,99575.69
2023-04-02T21:06:04.432Z,99571.34
2023-04-02T21:08:31.276Z,99571.25
2023-04-02T21:11:02.754Z,99571.19
2023-04-02T21:13:30.980Z,99571.97
2023-04-02T21:15:58.324Z,99572.88
2023-04-02T21:18:25.435Z,99576.38
2023-04-02T21:21:03.464Z,99569.50
2023-04-02T21:23:30.864Z,99576.38
2023-04-02T21:25:58.823Z,99573.75
2023-04-02T21:28:25.837Z,99575.44
2023-04-02T21:30:52.782Z,99562.53
2023-04-02T21:33:19.737Z,99571.88
2023-04-02T21:35:46.685Z,99565.06
2023-04-02T21:38:13.626Z,99574.56
2023-04-02T21:40:40.540Z,99578.81
2023-04-02T21:43:07.448Z,99575.34
2023-04-02T21:45:34.516Z,99577.03
2023-04-02T21:48:01.714Z,99575.31
2023-04-02T21:50:28.701Z,99567.63
2023-04-02T21:52:55.669Z,99570.31
2023-04-02T21:55:22.617Z,99566.88
2023-04-02T21:57:49.538Z,99571.25
2023-04-02T22:00:16.608Z,99569.56
2023-04-02T22:02:43.487Z,99564.44
2023-04-02T22:05:10.604Z,99563.63
2023-04-02T22:07:37.534Z,99572.19
2023-04-02T22:10:04.742Z,99567.88
2023-04-02T22:12:31.716Z,99566.09
2023-04-02T22:14:58.707Z,99573.81
2023-04-02T22:17:25.591Z,99566.06
2023-04-02T22:19:52.516Z,99566.91
2023-04-02T22:22:19.591Z,99562.63
2023-04-02T22:24:46.469Z,99562.66
2023-04-02T22:27:13.380Z,99567.00
2023-04-02T22:29:40.368Z,99568.78
2023-04-02T22:32:07.368Z,99564.53
2023-04-02T22:34:34.729Z,99568.03
2023-04-02T22:37:01.734Z,99566.34
2023-04-02T22:39:30.941Z,99570.66
2023-04-02T22:41:57.845Z,99562.09
2023-04-02T22:44:24.706Z,99558.66
2023-04-02T22:46:51.658Z,99557.84
2023-04-02T22:49:19.492Z,99565.56
2023-04-02T22:51:46.698Z,99563.03
2023-04-02T22:54:13.633Z,99558.78
2023-04-02T22:56:41.198Z,99560.59
2023-04-02T22:59:08.096Z,99559.00
2023-04-02T23:01:35.665Z,99560.72
2023-04-02T23:04:04.993Z,99565.81
2023-04-02T23:06:32.110Z,99561.38
2023-04-02T23:08:58.997Z,99563.81
2023-04-02T23:11:27.549Z,99566.34
2023-04-02T23:13:55.416Z,99561.09
2023-04-02T23:16:23.057Z,99564.41
2023-04-02T23:18:50.232Z,99566.94
2023-04-02T23:21:17.520Z,99557.44
2023-04-02T23:23:45.745Z,99565.16
2023-04-02T23:26:17.978Z,99554.84
2023-04-02T23:28:44.952Z,99562.53
2023-04-02T23:31:13.590Z,99559.97
2023-04-02T23:33:40.521Z,99570.31
2023-04-02T23:36:28.802Z,99562.53
2023-04-02T23:38:58.023Z,99557.34
2023-04-02T23:41:27.019Z,99560.72
2023-04-02T23:43:55.010Z,99564.97
2023-04-02T23:46:22.939Z,99550.38
2023-04-02T23:48:50.895Z,99554.63
2023-04-02T23:51:18.041Z,99561.44
2023-04-02T23:53:44.962Z,99557.13
2023-04-02T23:56:11.972Z,99557.09
2023-04-02T23:58:38.964Z,99557.88
